sensor_id;sensor_type;location;lat;lon;timestamp;P1;durP1;ratioP1;P2;durP2;ratioP2
7045;SDS011;3564;53.326;10.356;2023-05-23T00:02:24;10.33;;;9.20;;
7045;SDS011;3564;53.326;10.356;2023-05-23T00:04:50;10.10;;;9.20;;
7045;SDS011;3564;53.326;10.356;2023-05-23T00:07:16;11.23;;;10.20;;
7045;SDS011;3564;53.326;10.356;2023-05-23T00:09:42;12.27;;;10.17;;
7045;SDS011;3564;53.326;10.356;2023-05-23T00:12:07;11.27;;;10.27;;
7045;SDS011;3564;53.326;10.356;2023-05-23T00:14:33;10.83;;;9.73;;
7045;SDS011;3564;53.326;10.356;2023-05-23T00:16:59;10.93;;;9.80;;
7045;SDS011;3564;53.326;10.356;2023-05-23T00:19:29;10.67;;;9.60;;
7045;SDS011;3564;53.326;10.356;2023-05-23T00:21:56;12.03;;;10.77;;
7045;SDS011;3564;53.326;10.356;2023-05-23T00:24:22;11.50;;;10.30;;
7045;SDS011;3564;53.326;10.356;2023-05-23T00:26:48;11.37;;;10.30;;
7045;SDS011;3564;53.326;10.356;2023-05-23T00:29:14;11.97;;;10.93;;
7045;SDS011;3564;53.326;10.356;2023-05-23T00:31:41;11.77;;;10.67;;
7045;SDS011;3564;53.326;10.356;2023-05-23T00:34:10;12.83;;;11.50;;
7045;SDS011;3564;53.326;10.356;2023-05-23T00:36:36;13.20;;;11.90;;
7045;SDS011;3564;53.326;10.356;2023-05-23T00:39:02;14.33;;;12.63;;
7045;SDS011;3564;53.326;10.356;2023-05-23T00:41:29;13.73;;;12.47;;
7045;SDS011;3564;53.326;10.356;2023-05-23T00:43:56;14.03;;;12.63;;
7045;SDS011;3564;53.326;10.356;2023-05-23T00:46:25;12.83;;;11.53;;
7045;SDS011;3564;53.326;10.356;2023-05-23T00:48:51;13.27;;;11.97;;
7045;SDS011;3564;53.326;10.356;2023-05-23T00:51:20;13.47;;;12.07;;
7045;SDS011;3564;53.326;10.356;2023-05-23T00:53:46;13.33;;;12.03;;
7045;SDS011;3564;53.326;10.356;2023-05-23T00:56:13;13.33;;;12.03;;
7045;SDS011;3564;53.326;10.356;2023-05-23T00:58:38;14.07;;;12.67;;
7045;SDS011;3564;53.326;10.356;2023-05-23T01:01:05;12.90;;;11.77;;
7045;SDS011;3564;53.326;10.356;2023-05-23T01:03:32;14.60;;;12.03;;
7045;SDS011;3564;53.326;10.356;2023-05-23T01:05:57;14.33;;;13.10;;
7045;SDS011;3564;53.326;10.356;2023-05-23T01:08:23;14.13;;;12.63;;
7045;SDS011;3564;53.326;10.356;2023-05-23T01:10:48;14.07;;;12.37;;
7045;SDS011;3564;53.326;10.356;2023-05-23T01:13:36;14.10;;;12.80;;
7045;SDS011;3564;53.326;10.356;2023-05-23T01:16:09;13.80;;;12.40;;
7045;SDS011;3564;53.326;10.356;2023-05-23T01:18:52;14.13;;;12.73;;
7045;SDS011;3564;53.326;10.356;2023-05-23T01:21:24;14.57;;;12.90;;
7045;SDS011;3564;53.326;10.356;2023-05-23T01:26:59;13.40;;;12.03;;
7045;SDS011;3564;53.326;10.356;2023-05-23T01:29:39;13.93;;;12.63;;
7045;SDS011;3564;53.326;10.356;2023-05-23T01:32:09;13.60;;;12.20;;
7045;SDS011;3564;53.326;10.356;2023-05-23T01:34:36;15.10;;;12.27;;
7045;SDS011;3564;53.326;10.356;2023-05-23T01:37:07;14.37;;;13.00;;
7045;SDS011;3564;53.326;10.356;2023-05-23T01:39:38;14.50;;;12.40;;
7045;SDS011;3564;53.326;10.356;2023-05-23T01:42:04;14.43;;;12.80;;
7045;SDS011;3564;53.326;10.356;2023-05-23T01:44:31;14.73;;;13.33;;
7045;SDS011;3564;53.326;10.356;2023-05-23T01:46:58;14.60;;;13.17;;
7045;SDS011;3564;53.326;10.356;2023-05-23T01:49:24;14.30;;;12.93;;
7045;SDS011;3564;53.326;10.356;2023-05-23T01:51:51;13.90;;;12.50;;
7045;SDS011;3564;53.326;10.356;2023-05-23T01:54:17;15.37;;;13.87;;
7045;SDS011;3564;53.326;10.356;2023-05-23T01:56:43;15.10;;;13.07;;
7045;SDS011;3564;53.326;10.356;2023-05-23T01:59:09;14.90;;;13.50;;
7045;SDS011;3564;53.326;10.356;2023-05-23T02:01:36;15.87;;;14.20;;
7045;SDS011;3564;53.326;10.356;2023-05-23T02:04:02;15.67;;;13.80;;
7045;SDS011;3564;53.326;10.356;2023-05-23T02:06:28;14.70;;;13.30;;
7045;SDS011;3564;53.326;10.356;2023-05-23T02:08:55;13.80;;;12.57;;
7045;SDS011;3564;53.326;10.356;2023-05-23T02:11:21;15.17;;;13.60;;
7045;SDS011;3564;53.326;10.356;2023-05-23T02:13:47;15.17;;;12.30;;
7045;SDS011;3564;53.326;10.356;2023-05-23T02:16:12;13.83;;;12.53;;
7045;SDS011;3564;53.326;10.356;2023-05-23T02:18:38;15.13;;;13.37;;
7045;SDS011;3564;53.326;10.356;2023-05-23T02:21:04;16.73;;;15.03;;
7045;SDS011;3564;53.326;10.356;2023-05-23T02:23:29;20.57;;;18.20;;
7045;SDS011;3564;53.326;10.356;2023-05-23T02:25:55;21.37;;;19.17;;
7045;SDS011;3564;53.326;10.356;2023-05-23T02:28:21;19.83;;;17.83;;
7045;SDS011;3564;53.326;10.356;2023-05-23T02:30:46;22.67;;;19.77;;
7045;SDS011;3564;53.326;10.356;2023-05-23T02:33:12;24.07;;;21.57;;
7045;SDS011;3564;53.326;10.356;2023-05-23T02:35:38;24.10;;;21.70;;
7045;SDS011;3564;53.326;10.356;2023-05-23T02:38:04;23.87;;;20.43;;
7045;SDS011;3564;53.326;10.356;2023-05-23T02:40:30;25.30;;;22.60;;
7045;SDS011;3564;53.326;10.356;2023-05-23T02:42:55;27.30;;;24.60;;
7045;SDS011;3564;53.326;10.356;2023-05-23T02:45:21;25.93;;;23.33;;
7045;SDS011;3564;53.326;10.356;2023-05-23T02:47:47;27.53;;;24.90;;
7045;SDS011;3564;53.326;10.356;2023-05-23T02:50:13;27.50;;;24.60;;
7045;SDS011;3564;53.326;10.356;2023-05-23T02:52:38;26.83;;;24.03;;
7045;SDS011;3564;53.326;10.356;2023-05-23T02:55:06;26.90;;;24.03;;
7045;SDS011;3564;53.326;10.356;2023-05-23T02:57:32;28.57;;;25.43;;
7045;SDS011;3564;53.326;10.356;2023-05-23T02:59:58;28.93;;;25.33;;
7045;SDS011;3564;53.326;10.356;2023-05-23T03:02:23;28.63;;;25.57;;
7045;SDS011;3564;53.326;10.356;2023-05-23T03:04:49;28.03;;;25.10;;
7045;SDS011;3564;53.326;10.356;2023-05-23T03:07:15;27.17;;;24.40;;
7045;SDS011;3564;53.326;10.356;2023-05-23T03:09:40;30.40;;;26.10;;
7045;SDS011;3564;53.326;10.356;2023-05-23T03:12:06;33.93;;;25.97;;
7045;SDS011;3564;53.326;10.356;2023-05-23T03:14:32;28.53;;;24.60;;
7045;SDS011;3564;53.326;10.356;2023-05-23T03:16:57;32.73;;;27.20;;
7045;SDS011;3564;53.326;10.356;2023-05-23T03:19:23;33.67;;;25.90;;
7045;SDS011;3564;53.326;10.356;2023-05-23T03:21:48;34.87;;;26.57;;
7045;SDS011;3564;53.326;10.356;2023-05-23T03:24:16;32.77;;;26.43;;
7045;SDS011;3564;53.326;10.356;2023-05-23T03:26:41;29.23;;;24.07;;
7045;SDS011;3564;53.326;10.356;2023-05-23T03:29:07;31.07;;;25.70;;
7045;SDS011;3564;53.326;10.356;2023-05-23T03:31:35;31.13;;;24.13;;
7045;SDS011;3564;53.326;10.356;2023-05-23T03:34:01;30.53;;;25.33;;
7045;SDS011;3564;53.326;10.356;2023-05-23T03:36:27;32.17;;;25.17;;
7045;SDS011;3564;53.326;10.356;2023-05-23T03:38:52;29.97;;;24.73;;
7045;SDS011;3564;53.326;10.356;2023-05-23T03:41:18;30.80;;;24.63;;
7045;SDS011;3564;53.326;10.356;2023-05-23T03:43:43;30.50;;;24.33;;
7045;SDS011;3564;53.326;10.356;2023-05-23T03:46:09;34.90;;;25.47;;
7045;SDS011;3564;53.326;10.356;2023-05-23T03:48:35;34.13;;;26.30;;
7045;SDS011;3564;53.326;10.356;2023-05-23T03:51:01;32.77;;;24.80;;
7045;SDS011;3564;53.326;10.356;2023-05-23T03:53:27;31.20;;;24.80;;
7045;SDS011;3564;53.326;10.356;2023-05-23T03:55:52;29.43;;;24.83;;
7045;SDS011;3564;53.326;10.356;2023-05-23T03:58:18;30.00;;;24.40;;
7045;SDS011;3564;53.326;10.356;2023-05-23T04:00:44;27.53;;;22.73;;
7045;SDS011;3564;53.326;10.356;2023-05-23T04:03:10;31.33;;;23.90;;
7045;SDS011;3564;53.326;10.356;2023-05-23T04:05:39;30.13;;;22.00;;
7045;SDS011;3564;53.326;10.356;2023-05-23T04:08:04;31.70;;;23.07;;
7045;SDS011;3564;53.326;10.356;2023-05-23T04:10:31;29.67;;;24.00;;
7045;SDS011;3564;53.326;10.356;2023-05-23T04:12:56;29.40;;;23.07;;
7045;SDS011;3564;53.326;10.356;2023-05-23T04:15:22;30.00;;;23.20;;
7045;SDS011;3564;53.326;10.356;2023-05-23T04:17:48;31.13;;;24.30;;
7045;SDS011;3564;53.326;10.356;2023-05-23T04:20:15;33.10;;;24.50;;
7045;SDS011;3564;53.326;10.356;2023-05-23T04:22:41;31.30;;;25.60;;
7045;SDS011;3564;53.326;10.356;2023-05-23T04:25:07;30.10;;;24.00;;
7045;SDS011;3564;53.326;10.356;2023-05-23T04:27:33;30.57;;;23.47;;
7045;SDS011;3564;53.326;10.356;2023-05-23T04:30:04;32.90;;;25.37;;
7045;SDS011;3564;53.326;10.356;2023-05-23T04:32:31;32.83;;;23.90;;
7045;SDS011;3564;53.326;10.356;2023-05-23T04:34:56;31.93;;;23.13;;
7045;SDS011;3564;53.326;10.356;2023-05-23T04:37:22;30.63;;;22.90;;
7045;SDS011;3564;53.326;10.356;2023-05-23T04:39:50;24.00;;;20.03;;
7045;SDS011;3564;53.326;10.356;2023-05-23T04:42:16;27.83;;;20.13;;
7045;SDS011;3564;53.326;10.356;2023-05-23T04:44:42;30.13;;;20.67;;
7045;SDS011;3564;53.326;10.356;2023-05-23T04:47:08;23.50;;;20.33;;
7045;SDS011;3564;53.326;10.356;2023-05-23T04:49:34;25.27;;;20.70;;
7045;SDS011;3564;53.326;10.356;2023-05-23T04:52:00;22.47;;;18.67;;
7045;SDS011;3564;53.326;10.356;2023-05-23T04:54:26;24.00;;;17.97;;
7045;SDS011;3564;53.326;10.356;2023-05-23T04:56:51;22.60;;;17.40;;
7045;SDS011;3564;53.326;10.356;2023-05-23T04:59:17;22.77;;;17.30;;
7045;SDS011;3564;53.326;10.356;2023-05-23T05:01:42;20.43;;;17.30;;
7045;SDS011;3564;53.326;10.356;2023-05-23T05:04:08;24.40;;;16.93;;
7045;SDS011;3564;53.326;10.356;2023-05-23T05:06:33;19.97;;;16.50;;
7045;SDS011;3564;53.326;10.356;2023-05-23T05:08:59;20.60;;;15.97;;
7045;SDS011;3564;53.326;10.356;2023-05-23T05:11:25;22.53;;;16.23;;
7045;SDS011;3564;53.326;10.356;2023-05-23T05:13:51;21.57;;;16.60;;
7045;SDS011;3564;53.326;10.356;2023-05-23T05:16:16;19.43;;;16.53;;
7045;SDS011;3564;53.326;10.356;2023-05-23T05:18:42;19.93;;;16.47;;
7045;SDS011;3564;53.326;10.356;2023-05-23T05:21:07;22.27;;;17.37;;
7045;SDS011;3564;53.326;10.356;2023-05-23T05:23:34;21.03;;;17.20;;
7045;SDS011;3564;53.326;10.356;2023-05-23T05:26:00;24.03;;;17.43;;
7045;SDS011;3564;53.326;10.356;2023-05-23T05:28:25;21.63;;;17.37;;
7045;SDS011;3564;53.326;10.356;2023-05-23T05:30:51;21.60;;;17.67;;
7045;SDS011;3564;53.326;10.356;2023-05-23T05:33:20;21.30;;;16.87;;
7045;SDS011;3564;53.326;10.356;2023-05-23T05:35:48;21.77;;;17.10;;
7045;SDS011;3564;53.326;10.356;2023-05-23T05:38:17;23.23;;;17.90;;
7045;SDS011;3564;53.326;10.356;2023-05-23T05:40:43;22.00;;;18.03;;
7045;SDS011;3564;53.326;10.356;2023-05-23T05:43:08;24.77;;;18.23;;
7045;SDS011;3564;53.326;10.356;2023-05-23T05:45:34;21.67;;;16.47;;
7045;SDS011;3564;53.326;10.356;2023-05-23T05:48:00;21.77;;;17.83;;
7045;SDS011;3564;53.326;10.356;2023-05-23T05:50:26;23.80;;;18.07;;
7045;SDS011;3564;53.326;10.356;2023-05-23T05:52:51;24.20;;;18.57;;
7045;SDS011;3564;53.326;10.356;2023-05-23T05:55:17;22.87;;;16.03;;
7045;SDS011;3564;53.326;10.356;2023-05-23T05:57:43;24.37;;;18.90;;
7045;SDS011;3564;53.326;10.356;2023-05-23T06:00:12;22.27;;;17.70;;
7045;SDS011;3564;53.326;10.356;2023-05-23T06:02:43;26.10;;;19.93;;
7045;SDS011;3564;53.326;10.356;2023-05-23T06:05:13;26.80;;;19.60;;
7045;SDS011;3564;53.326;10.356;2023-05-23T06:07:40;25.23;;;19.50;;
7045;SDS011;3564;53.326;10.356;2023-05-23T06:10:07;24.47;;;18.27;;
7045;SDS011;3564;53.326;10.356;2023-05-23T06:12:35;23.70;;;19.47;;
7045;SDS011;3564;53.326;10.356;2023-05-23T06:15:01;27.30;;;19.40;;
7045;SDS011;3564;53.326;10.356;2023-05-23T06:17:26;24.87;;;19.37;;
7045;SDS011;3564;53.326;10.356;2023-05-23T06:19:52;27.50;;;19.07;;
7045;SDS011;3564;53.326;10.356;2023-05-23T06:22:17;27.27;;;19.40;;
7045;SDS011;3564;53.326;10.356;2023-05-23T06:24:43;27.53;;;20.50;;
7045;SDS011;3564;53.326;10.356;2023-05-23T06:27:08;27.33;;;19.87;;
7045;SDS011;3564;53.326;10.356;2023-05-23T06:29:34;30.27;;;21.20;;
7045;SDS011;3564;53.326;10.356;2023-05-23T06:32:00;27.97;;;19.83;;
7045;SDS011;3564;53.326;10.356;2023-05-23T06:34:26;24.73;;;18.87;;
7045;SDS011;3564;53.326;10.356;2023-05-23T06:36:52;25.70;;;19.30;;
7045;SDS011;3564;53.326;10.356;2023-05-23T06:39:17;29.43;;;21.10;;
7045;SDS011;3564;53.326;10.356;2023-05-23T06:41:43;29.20;;;20.73;;
7045;SDS011;3564;53.326;10.356;2023-05-23T06:44:11;30.50;;;21.13;;
7045;SDS011;3564;53.326;10.356;2023-05-23T06:46:36;29.80;;;20.17;;
7045;SDS011;3564;53.326;10.356;2023-05-23T06:49:02;27.00;;;19.93;;
7045;SDS011;3564;53.326;10.356;2023-05-23T06:51:27;29.47;;;20.90;;
7045;SDS011;3564;53.326;10.356;2023-05-23T06:53:53;34.57;;;20.83;;
7045;SDS011;3564;53.326;10.356;2023-05-23T06:56:20;31.63;;;21.80;;
7045;SDS011;3564;53.326;10.356;2023-05-23T06:58:47;32.27;;;21.57;;
7045;SDS011;3564;53.326;10.356;2023-05-23T07:01:12;28.13;;;20.13;;
7045;SDS011;3564;53.326;10.356;2023-05-23T07:03:38;32.17;;;20.93;;
7045;SDS011;3564;53.326;10.356;2023-05-23T07:06:05;29.27;;;21.63;;
7045;SDS011;3564;53.326;10.356;2023-05-23T07:08:31;33.17;;;21.67;;
7045;SDS011;3564;53.326;10.356;2023-05-23T07:10:57;28.43;;;20.00;;
7045;SDS011;3564;53.326;10.356;2023-05-23T07:13:23;26.40;;;19.70;;
7045;SDS011;3564;53.326;10.356;2023-05-23T07:15:48;37.37;;;22.20;;
7045;SDS011;3564;53.326;10.356;2023-05-23T07:18:15;32.03;;;22.43;;
7045;SDS011;3564;53.326;10.356;2023-05-23T07:20:41;33.20;;;22.83;;
7045;SDS011;3564;53.326;10.356;2023-05-23T07:23:07;30.80;;;22.30;;
7045;SDS011;3564;53.326;10.356;2023-05-23T07:25:33;28.17;;;21.80;;
7045;SDS011;3564;53.326;10.356;2023-05-23T07:27:59;30.63;;;22.60;;
7045;SDS011;3564;53.326;10.356;2023-05-23T07:30:24;33.63;;;23.30;;
7045;SDS011;3564;53.326;10.356;2023-05-23T07:32:50;29.03;;;21.17;;
7045;SDS011;3564;53.326;10.356;2023-05-23T07:35:16;29.70;;;22.30;;
7045;SDS011;3564;53.326;10.356;2023-05-23T07:37:42;32.67;;;22.90;;
7045;SDS011;3564;53.326;10.356;2023-05-23T07:40:08;32.63;;;23.50;;
7045;SDS011;3564;53.326;10.356;2023-05-23T07:42:34;32.20;;;23.07;;
7045;SDS011;3564;53.326;10.356;2023-05-23T07:45:00;30.43;;;23.63;;
7045;SDS011;3564;53.326;10.356;2023-05-23T07:47:28;33.13;;;24.67;;
7045;SDS011;3564;53.326;10.356;2023-05-23T07:49:53;35.00;;;23.93;;
7045;SDS011;3564;53.326;10.356;2023-05-23T07:52:19;30.53;;;22.47;;
7045;SDS011;3564;53.326;10.356;2023-05-23T07:54:45;33.17;;;21.97;;
7045;SDS011;3564;53.326;10.356;2023-05-23T07:57:10;27.00;;;21.33;;
7045;SDS011;3564;53.326;10.356;2023-05-23T07:59:36;26.00;;;20.23;;
7045;SDS011;3564;53.326;10.356;2023-05-23T08:02:02;23.90;;;18.90;;
7045;SDS011;3564;53.326;10.356;2023-05-23T08:04:28;23.80;;;18.20;;
7045;SDS011;3564;53.326;10.356;2023-05-23T08:06:55;20.77;;;15.67;;
7045;SDS011;3564;53.326;10.356;2023-05-23T08:09:23;17.10;;;13.70;;
7045;SDS011;3564;53.326;10.356;2023-05-23T08:11:49;14.97;;;13.37;;
7045;SDS011;3564;53.326;10.356;2023-05-23T08:14:15;16.07;;;13.83;;
7045;SDS011;3564;53.326;10.356;2023-05-23T08:16:40;17.57;;;14.07;;
7045;SDS011;3564;53.326;10.356;2023-05-23T08:19:06;17.27;;;14.27;;
7045;SDS011;3564;53.326;10.356;2023-05-23T08:21:32;14.77;;;13.23;;
7045;SDS011;3564;53.326;10.356;2023-05-23T08:24:01;16.67;;;13.40;;
7045;SDS011;3564;53.326;10.356;2023-05-23T08:26:29;14.07;;;10.50;;
7045;SDS011;3564;53.326;10.356;2023-05-23T08:28:59;14.53;;;11.50;;
7045;SDS011;3564;53.326;10.356;2023-05-23T08:31:26;15.63;;;10.60;;
7045;SDS011;3564;53.326;10.356;2023-05-23T08:33:52;12.80;;;10.23;;
7045;SDS011;3564;53.326;10.356;2023-05-23T08:36:19;13.20;;;10.23;;
7045;SDS011;3564;53.326;10.356;2023-05-23T08:38:45;12.37;;;9.67;;
7045;SDS011;3564;53.326;10.356;2023-05-23T08:41:19;10.97;;;9.60;;
7045;SDS011;3564;53.326;10.356;2023-05-23T08:43:46;11.37;;;8.27;;
7045;SDS011;3564;53.326;10.356;2023-05-23T08:46:12;9.73;;;8.73;;
7045;SDS011;3564;53.326;10.356;2023-05-23T08:48:39;9.87;;;8.60;;
7045;SDS011;3564;53.326;10.356;2023-05-23T08:51:10;11.97;;;8.33;;
7045;SDS011;3564;53.326;10.356;2023-05-23T08:53:40;10.33;;;8.83;;
7045;SDS011;3564;53.326;10.356;2023-05-23T08:56:13;9.03;;;7.53;;
7045;SDS011;3564;53.326;10.356;2023-05-23T08:58:40;9.87;;;7.07;;
7045;SDS011;3564;53.326;10.356;2023-05-23T09:01:10;8.87;;;6.97;;
7045;SDS011;3564;53.326;10.356;2023-05-23T09:03:38;7.90;;;6.97;;
7045;SDS011;3564;53.326;10.356;2023-05-23T09:06:06;8.87;;;7.97;;
7045;SDS011;3564;53.326;10.356;2023-05-23T09:08:33;8.30;;;7.23;;
7045;SDS011;3564;53.326;10.356;2023-05-23T09:11:00;9.37;;;6.83;;
7045;SDS011;3564;53.326;10.356;2023-05-23T09:13:29;10.20;;;7.80;;
7045;SDS011;3564;53.326;10.356;2023-05-23T09:16:05;9.67;;;6.53;;
7045;SDS011;3564;53.326;10.356;2023-05-23T09:18:44;7.50;;;6.23;;
7045;SDS011;3564;53.326;10.356;2023-05-23T09:21:10;9.97;;;6.83;;
7045;SDS011;3564;53.326;10.356;2023-05-23T09:23:39;7.40;;;6.23;;
7045;SDS011;3564;53.326;10.356;2023-05-23T09:26:06;7.13;;;5.97;;
7045;SDS011;3564;53.326;10.356;2023-05-23T09:28:33;6.93;;;6.20;;
7045;SDS011;3564;53.326;10.356;2023-05-23T09:31:03;9.07;;;6.50;;
7045;SDS011;3564;53.326;10.356;2023-05-23T09:33:47;6.23;;;5.63;;
7045;SDS011;3564;53.326;10.356;2023-05-23T09:36:14;6.33;;;5.20;;
7045;SDS011;3564;53.326;10.356;2023-05-23T09:38:42;7.40;;;5.10;;
7045;SDS011;3564;53.326;10.356;2023-05-23T09:41:10;6.20;;;5.27;;
7045;SDS011;3564;53.326;10.356;2023-05-23T09:43:39;6.97;;;4.90;;
7045;SDS011;3564;53.326;10.356;2023-05-23T09:46:18;9.20;;;5.13;;
7045;SDS011;3564;53.326;10.356;2023-05-23T09:49:13;8.50;;;4.93;;
7045;SDS011;3564;53.326;10.356;2023-05-23T09:51:57;6.93;;;4.73;;
7045;SDS011;3564;53.326;10.356;2023-05-23T09:54:23;6.33;;;4.67;;
7045;SDS011;3564;53.326;10.356;2023-05-23T09:56:48;6.83;;;4.63;;
7045;SDS011;3564;53.326;10.356;2023-05-23T09:59:20;5.90;;;5.37;;
7045;SDS011;3564;53.326;10.356;2023-05-23T10:01:51;5.30;;;4.10;;
7045;SDS011;3564;53.326;10.356;2023-05-23T10:04:20;6.80;;;4.97;;
7045;SDS011;3564;53.326;10.356;2023-05-23T10:06:50;9.67;;;5.57;;
7045;SDS011;3564;53.326;10.356;2023-05-23T10:09:22;7.40;;;5.83;;
7045;SDS011;3564;53.326;10.356;2023-05-23T10:12:15;9.43;;;6.87;;
7045;SDS011;3564;53.326;10.356;2023-05-23T10:15:04;11.10;;;7.20;;
7045;SDS011;3564;53.326;10.356;2023-05-23T10:17:50;12.37;;;8.47;;
7045;SDS011;3564;53.326;10.356;2023-05-23T10:20:29;10.17;;;7.07;;
7045;SDS011;3564;53.326;10.356;2023-05-23T10:22:58;9.87;;;7.33;;
7045;SDS011;3564;53.326;10.356;2023-05-23T10:25:24;10.50;;;7.30;;
7045;SDS011;3564;53.326;10.356;2023-05-23T10:27:53;11.47;;;7.53;;
7045;SDS011;3564;53.326;10.356;2023-05-23T10:30:26;10.50;;;7.77;;
7045;SDS011;3564;53.326;10.356;2023-05-23T10:32:53;9.37;;;7.00;;
7045;SDS011;3564;53.326;10.356;2023-05-23T10:35:31;10.57;;;7.07;;
7045;SDS011;3564;53.326;10.356;2023-05-23T10:38:29;8.63;;;6.73;;
7045;SDS011;3564;53.326;10.356;2023-05-23T10:44:01;8.30;;;6.40;;
7045;SDS011;3564;53.326;10.356;2023-05-23T10:46:56;8.10;;;5.57;;
7045;SDS011;3564;53.326;10.356;2023-05-23T10:49:44;6.07;;;5.40;;
7045;SDS011;3564;53.326;10.356;2023-05-23T10:52:17;7.73;;;5.53;;
7045;SDS011;3564;53.326;10.356;2023-05-23T10:54:51;6.50;;;5.00;;
7045;SDS011;3564;53.326;10.356;2023-05-23T10:57:19;7.43;;;5.07;;
7045;SDS011;3564;53.326;10.356;2023-05-23T10:59:46;7.93;;;5.07;;
7045;SDS011;3564;53.326;10.356;2023-05-23T11:02:15;8.23;;;4.77;;
7045;SDS011;3564;53.326;10.356;2023-05-23T11:04:43;6.53;;;4.97;;
7045;SDS011;3564;53.326;10.356;2023-05-23T11:10:10;5.57;;;4.47;;
7045;SDS011;3564;53.326;10.356;2023-05-23T11:12:47;8.03;;;5.30;;
7045;SDS011;3564;53.326;10.356;2023-05-23T11:17:48;9.30;;;4.80;;
7045;SDS011;3564;53.326;10.356;2023-05-23T11:20:18;6.40;;;3.83;;
7045;SDS011;3564;53.326;10.356;2023-05-23T11:23:00;6.03;;;4.00;;
7045;SDS011;3564;53.326;10.356;2023-05-23T11:25:43;6.83;;;3.23;;
7045;SDS011;3564;53.326;10.356;2023-05-23T11:28:12;6.50;;;3.57;;
7045;SDS011;3564;53.326;10.356;2023-05-23T11:30:38;6.37;;;3.20;;
7045;SDS011;3564;53.326;10.356;2023-05-23T11:33:08;5.10;;;3.33;;
7045;SDS011;3564;53.326;10.356;2023-05-23T11:35:41;9.13;;;3.53;;
7045;SDS011;3564;53.326;10.356;2023-05-23T11:38:09;8.13;;;3.80;;
7045;SDS011;3564;53.326;10.356;2023-05-23T11:40:38;8.40;;;4.17;;
7045;SDS011;3564;53.326;10.356;2023-05-23T11:43:07;7.97;;;3.47;;
7045;SDS011;3564;53.326;10.356;2023-05-23T11:45:34;9.30;;;4.03;;
7045;SDS011;3564;53.326;10.356;2023-05-23T11:48:05;9.20;;;3.27;;
7045;SDS011;3564;53.326;10.356;2023-05-23T11:50:50;7.37;;;3.17;;
7045;SDS011;3564;53.326;10.356;2023-05-23T11:53:20;10.90;;;3.67;;
7045;SDS011;3564;53.326;10.356;2023-05-23T11:55:52;7.00;;;3.47;;
7045;SDS011;3564;53.326;10.356;2023-05-23T11:58:27;6.90;;;4.40;;
7045;SDS011;3564;53.326;10.356;2023-05-23T12:01:07;12.20;;;4.93;;
7045;SDS011;3564;53.326;10.356;2023-05-23T12:03:34;13.83;;;4.90;;
7045;SDS011;3564;53.326;10.356;2023-05-23T12:06:16;12.87;;;4.90;;
7045;SDS011;3564;53.326;10.356;2023-05-23T12:08:46;12.30;;;4.80;;
7045;SDS011;3564;53.326;10.356;2023-05-23T12:11:12;9.03;;;5.30;;
7045;SDS011;3564;53.326;10.356;2023-05-23T12:13:39;9.00;;;4.27;;
7045;SDS011;3564;53.326;10.356;2023-05-23T12:16:06;8.33;;;4.70;;
7045;SDS011;3564;53.326;10.356;2023-05-23T12:18:32;10.60;;;5.07;;
7045;SDS011;3564;53.326;10.356;2023-05-23T12:21:00;14.03;;;5.30;;
7045;SDS011;3564;53.326;10.356;2023-05-23T12:23:27;9.50;;;5.03;;
7045;SDS011;3564;53.326;10.356;2023-05-23T12:25:53;11.50;;;4.87;;
7045;SDS011;3564;53.326;10.356;2023-05-23T12:28:20;14.03;;;4.40;;
7045;SDS011;3564;53.326;10.356;2023-05-23T12:30:58;8.60;;;3.70;;
7045;SDS011;3564;53.326;10.356;2023-05-23T12:33:26;11.10;;;4.13;;
7045;SDS011;3564;53.326;10.356;2023-05-23T12:35:55;10.10;;;4.27;;
7045;SDS011;3564;53.326;10.356;2023-05-23T12:38:26;10.43;;;3.60;;
7045;SDS011;3564;53.326;10.356;2023-05-23T12:41:11;10.00;;;4.20;;
7045;SDS011;3564;53.326;10.356;2023-05-23T12:43:49;9.90;;;3.97;;
7045;SDS011;3564;53.326;10.356;2023-05-23T12:46:16;9.60;;;3.97;;
7045;SDS011;3564;53.326;10.356;2023-05-23T12:48:42;8.20;;;4.23;;
7045;SDS011;3564;53.326;10.356;2023-05-23T12:51:08;7.97;;;4.40;;
7045;SDS011;3564;53.326;10.356;2023-05-23T12:53:36;9.67;;;4.97;;
7045;SDS011;3564;53.326;10.356;2023-05-23T12:56:01;9.97;;;4.73;;
7045;SDS011;3564;53.326;10.356;2023-05-23T12:58:30;11.10;;;4.13;;
7045;SDS011;3564;53.326;10.356;2023-05-23T13:00:56;8.60;;;4.10;;
7045;SDS011;3564;53.326;10.356;2023-05-23T13:03:23;10.47;;;4.37;;
7045;SDS011;3564;53.326;10.356;2023-05-23T13:05:49;9.17;;;3.90;;
7045;SDS011;3564;53.326;10.356;2023-05-23T13:08:15;10.27;;;4.23;;
7045;SDS011;3564;53.326;10.356;2023-05-23T13:10:44;11.63;;;4.53;;
7045;SDS011;3564;53.326;10.356;2023-05-23T13:13:10;9.77;;;4.27;;
7045;SDS011;3564;53.326;10.356;2023-05-23T13:15:36;8.77;;;4.57;;
7045;SDS011;3564;53.326;10.356;2023-05-23T13:18:02;11.83;;;5.00;;
7045;SDS011;3564;53.326;10.356;2023-05-23T13:20:28;10.10;;;4.33;;
7045;SDS011;3564;53.326;10.356;2023-05-23T13:22:57;13.47;;;4.13;;
7045;SDS011;3564;53.326;10.356;2023-05-23T13:25:23;11.40;;;4.03;;
7045;SDS011;3564;53.326;10.356;2023-05-23T13:27:49;13.03;;;4.23;;
7045;SDS011;3564;53.326;10.356;2023-05-23T13:30:15;10.40;;;4.10;;
7045;SDS011;3564;53.326;10.356;2023-05-23T13:32:41;12.10;;;4.07;;
7045;SDS011;3564;53.326;10.356;2023-05-23T13:35:07;11.43;;;4.27;;
7045;SDS011;3564;53.326;10.356;2023-05-23T13:37:36;9.47;;;4.03;;
7045;SDS011;3564;53.326;10.356;2023-05-23T13:40:02;6.37;;;3.90;;
7045;SDS011;3564;53.326;10.356;2023-05-23T13:42:28;7.70;;;3.90;;
7045;SDS011;3564;53.326;10.356;2023-05-23T13:44:54;9.63;;;4.40;;
7045;SDS011;3564;53.326;10.356;2023-05-23T13:47:23;7.77;;;3.50;;
7045;SDS011;3564;53.326;10.356;2023-05-23T13:49:51;7.23;;;3.47;;
7045;SDS011;3564;53.326;10.356;2023-05-23T13:52:20;9.47;;;4.23;;
7045;SDS011;3564;53.326;10.356;2023-05-23T13:54:45;7.83;;;3.83;;
7045;SDS011;3564;53.326;10.356;2023-05-23T13:57:14;5.30;;;3.33;;
7045;SDS011;3564;53.326;10.356;2023-05-23T13:59:39;8.50;;;3.70;;
7045;SDS011;3564;53.326;10.356;2023-05-23T14:02:05;12.50;;;4.63;;
7045;SDS011;3564;53.326;10.356;2023-05-23T14:04:34;9.10;;;3.70;;
7045;SDS011;3564;53.326;10.356;2023-05-23T14:07:00;8.37;;;3.80;;
7045;SDS011;3564;53.326;10.356;2023-05-23T14:09:25;9.47;;;4.30;;
7045;SDS011;3564;53.326;10.356;2023-05-23T14:11:54;12.03;;;4.10;;
7045;SDS011;3564;53.326;10.356;2023-05-23T14:14:20;11.67;;;4.17;;
7045;SDS011;3564;53.326;10.356;2023-05-23T14:16:45;7.67;;;3.97;;
7045;SDS011;3564;53.326;10.356;2023-05-23T14:19:11;9.67;;;4.03;;
7045;SDS011;3564;53.326;10.356;2023-05-23T14:21:37;9.50;;;3.80;;
7045;SDS011;3564;53.326;10.356;2023-05-23T14:24:02;10.20;;;3.80;;
7045;SDS011;3564;53.326;10.356;2023-05-23T14:26:28;8.63;;;4.10;;
7045;SDS011;3564;53.326;10.356;2023-05-23T14:28:54;10.57;;;3.97;;
7045;SDS011;3564;53.326;10.356;2023-05-23T14:31:19;9.40;;;3.73;;
7045;SDS011;3564;53.326;10.356;2023-05-23T14:33:46;7.53;;;3.53;;
7045;SDS011;3564;53.326;10.356;2023-05-23T14:36:13;11.03;;;3.83;;
7045;SDS011;3564;53.326;10.356;2023-05-23T14:38:39;10.63;;;3.90;;
7045;SDS011;3564;53.326;10.356;2023-05-23T14:41:08;11.93;;;3.70;;
7045;SDS011;3564;53.326;10.356;2023-05-23T14:43:34;8.57;;;3.80;;
7045;SDS011;3564;53.326;10.356;2023-05-23T14:46:03;11.13;;;3.93;;
7045;SDS011;3564;53.326;10.356;2023-05-23T14:48:29;11.40;;;3.77;;
7045;SDS011;3564;53.326;10.356;2023-05-23T14:50:55;8.77;;;4.03;;
7045;SDS011;3564;53.326;10.356;2023-05-23T14:53:21;10.23;;;4.10;;
7045;SDS011;3564;53.326;10.356;2023-05-23T14:55:47;10.50;;;3.87;;
7045;SDS011;3564;53.326;10.356;2023-05-23T14:58:16;7.23;;;3.87;;
7045;SDS011;3564;53.326;10.356;2023-05-23T15:00:42;6.73;;;3.17;;